Time;durP1;ratioP1;P1;durP2;ratioP2;P2;SDS_P1;SDS_P2;PMS_P1;PMS_P2;Temp;Humidity;BMP_temperature;BMP_pressure;BME280_temperature;BME280_humidity;BME280_pressure;Samples;Min_cycle;Max_cycle;Signal;HPM_P1;HPM_P2
2023/05/16 00:01:55;;;;;;;26.65;7.05;;;;;;;10.41;78.78;101766.59;5070294;28;20028;-65
2023/05/16 00:04:26;;;;;;;22.50;6.18;;;;;;;10.32;78.58;101775.00;5071787;28;20024;-65
2023/05/16 00:06:51;;;;;;;18.83;5.93;;;;;;;10.52;78.25;101774.03;5070018;28;20024;-65
2023/05/16 00:09:17;;;;;;;17.25;6.18;;;;;;;10.39;78.77;101779.09;5071930;28;20146;-65
2023/05/16 00:11:42;;;;;;;19.25;5.97;;;;;;;10.40;78.17;101779.97;5070093;28;20024;-65
2023/05/16 00:14:08;;;;;;;25.05;6.57;;;;;;;10.41;78.06;101785.22;5071954;28;20081;-65
2023/05/16 00:16:35;;;;;;;18.33;6.32;;;;;;;10.31;78.37;101783.06;5071610;28;20035;-66
2023/05/16 00:19:01;;;;;;;19.48;5.90;;;;;;;10.43;77.57;101782.47;5070416;28;20024;-65
2023/05/16 00:21:27;;;;;;;19.73;6.38;;;;;;;10.38;77.27;101782.72;5071360;28;20020;-65
2023/05/16 00:23:52;;;;;;;22.20;6.53;;;;;;;10.20;77.91;101778.19;5071286;28;20105;-65
2023/05/16 00:26:18;;;;;;;19.45;6.05;;;;;;;10.30;77.15;101776.03;5069693;28;20028;-66
2023/05/16 00:28:43;;;;;;;21.23;6.10;;;;;;;10.11;77.48;101784.78;5070012;28;20025;-66
2023/05/16 00:31:09;;;;;;;19.38;5.75;;;;;;;9.96;78.24;101785.50;5069982;28;20525;-65
2023/05/16 00:33:34;;;;;;;19.15;5.35;;;;;;;9.96;78.26;101789.03;5071371;28;20094;-65
2023/05/16 00:36:02;;;;;;;23.35;6.95;;;;;;;9.91;78.58;101780.41;5071431;28;20080;-65
2023/05/16 00:38:27;;;;;;;20.25;5.80;;;;;;;9.86;78.40;101774.44;5071390;28;20033;-66
2023/05/16 00:40:53;;;;;;;17.35;5.90;;;;;;;9.85;78.60;101777.16;5074800;28;20028;-65
2023/05/16 00:43:20;;;;;;;18.15;5.70;;;;;;;9.65;78.92;101772.75;5075509;28;20028;-66
2023/05/16 00:45:46;;;;;;;18.90;6.28;;;;;;;9.68;79.52;101776.13;5075350;28;20107;-65
2023/05/16 00:48:12;;;;;;;19.60;5.25;;;;;;;9.75;78.62;101785.53;5075154;28;20052;-65
2023/05/16 00:50:38;;;;;;;19.30;5.95;;;;;;;9.72;79.01;101776.84;5073854;28;20028;-65
2023/05/16 00:53:04;;;;;;;20.60;5.88;;;;;;;9.68;78.86;101778.78;5074638;28;20571;-66
2023/05/16 00:55:32;;;;;;;17.73;6.38;;;;;;;9.62;79.27;101771.09;5074637;28;20107;-65
2023/05/16 00:57:58;;;;;;;19.67;5.95;;;;;;;9.54;78.94;101782.03;5074991;28;20108;-65
2023/05/16 01:00:24;;;;;;;21.65;6.68;;;;;;;9.59;78.86;101781.84;5075234;28;20024;-65
2023/05/16 01:02:52;;;;;;;16.27;5.60;;;;;;;9.41;79.29;101791.47;5073548;28;20024;-65
2023/05/16 01:05:20;;;;;;;22.75;5.55;;;;;;;9.42;79.58;101787.03;5107801;28;20075;-66
2023/05/16 01:07:46;;;;;;;20.02;5.97;;;;;;;9.40;78.99;101783.56;5074341;28;20028;-66
2023/05/16 01:10:11;;;;;;;22.73;5.72;;;;;;;9.35;79.42;101783.75;5073676;28;20074;-65
2023/05/16 01:13:12;;;;;;;20.88;5.38;;;;;;;9.34;79.59;101800.63;5073583;28;20468;-65
2023/05/16 01:15:55;;;;;;;21.10;6.10;;;;;;;9.39;79.42;101796.00;5073758;28;20090;-65
2023/05/16 01:18:33;;;;;;;20.73;6.05;;;;;;;9.27;79.34;101799.16;5073334;28;20123;-66
2023/05/16 01:21:00;;;;;;;17.25;5.20;;;;;;;9.20;79.32;101800.34;5074762;28;20059;-65
2023/05/16 01:23:50;;;;;;;20.23;5.35;;;;;;;9.19;79.44;101791.50;5074048;28;20107;-65
2023/05/16 01:26:23;;;;;;;17.88;5.57;;;;;;;9.16;78.87;101796.09;5073266;28;20107;-65
2023/05/16 01:28:51;;;;;;;19.92;6.18;;;;;;;9.13;79.54;101802.41;5074487;28;20028;-65
2023/05/16 01:31:17;;;;;;;18.48;5.38;;;;;;;9.05;79.21;101808.00;5107249;28;20031;-65
2023/05/16 01:33:45;;;;;;;20.50;5.35;;;;;;;9.18;78.72;101802.22;5074602;28;20021;-65
2023/05/16 01:36:16;;;;;;;21.73;6.30;;;;;;;9.08;79.24;101807.00;5074733;28;20506;-65
2023/05/16 01:38:56;;;;;;;20.65;5.38;;;;;;;9.09;79.42;101800.81;5074096;28;20021;-65
2023/05/16 01:41:44;;;;;;;18.20;5.88;;;;;;;9.23;78.52;101797.56;5073074;28;20103;-66
2023/05/16 01:44:34;;;;;;;16.58;5.43;;;;;;;9.22;78.84;101806.44;5075479;28;20021;-65
2023/05/16 01:47:03;;;;;;;16.02;5.35;;;;;;;9.08;78.76;101804.38;5064374;28;20024;-65
2023/05/16 01:49:35;;;;;;;16.92;5.38;;;;;;;9.14;78.31;101813.88;5078814;28;20035;-65
2023/05/16 01:52:09;;;;;;;18.27;5.53;;;;;;;9.17;78.12;101813.75;5094041;28;20092;-65
2023/05/16 01:54:40;;;;;;;25.33;6.82;;;;;;;8.99;78.82;101813.56;5094077;28;20024;-65
2023/05/16 01:57:07;;;;;;;16.27;4.88;;;;;;;9.14;78.59;101821.81;5036337;28;20147;-65
2023/05/16 01:59:33;;;;;;;18.17;5.63;;;;;;;8.99;78.49;101812.72;5071865;28;20039;-65
2023/05/16 02:01:59;;;;;;;20.05;5.25;;;;;;;9.10;77.83;101823.75;5071885;28;20031;-65
2023/05/16 02:04:25;;;;;;;21.63;5.90;;;;;;;9.09;78.08;101806.97;5073874;28;20029;-65
2023/05/16 02:06:50;;;;;;;19.58;5.60;;;;;;;9.06;77.99;101819.50;5072023;28;20062;-66
2023/05/16 02:09:18;;;;;;;21.15;6.38;;;;;;;9.05;78.07;101833.69;5106168;28;20472;-65
2023/05/16 02:11:45;;;;;;;17.58;5.15;;;;;;;9.01;77.62;101826.78;5073331;28;20032;-65
2023/05/16 02:14:11;;;;;;;22.20;5.88;;;;;;;8.97;77.98;101822.50;5073741;28;20386;-66
2023/05/16 02:16:36;;;;;;;19.88;6.38;;;;;;;8.87;77.92;101824.69;5073659;28;20032;-65
2023/05/16 02:19:01;;;;;;;17.27;4.35;;;;;;;9.02;77.77;101828.50;5073392;28;20107;-66
2023/05/16 02:21:31;;;;;;;15.23;5.68;;;;;;;8.87;77.82;101827.34;5071266;28;20033;-66
2023/05/16 02:23:57;;;;;;;18.70;5.88;;;;;;;8.93;78.03;101821.78;5073390;28;20028;-65
2023/05/16 02:26:22;;;;;;;23.58;5.82;;;;;;;8.81;78.22;101824.94;5071997;28;20036;-66
2023/05/16 02:28:50;;;;;;;19.00;5.63;;;;;;;8.81;78.50;101825.78;5073274;28;20056;-65
2023/05/16 02:31:31;;;;;;;18.08;5.47;;;;;;;8.84;78.48;101836.28;5072829;28;20036;-66
2023/05/16 02:33:57;;;;;;;18.52;5.80;;;;;;;8.64;78.46;101820.28;5071887;28;20495;-65
2023/05/16 02:36:26;;;;;;;16.92;5.00;;;;;;;8.80;78.83;101829.38;5072717;28;20017;-65
2023/05/16 02:38:51;;;;;;;22.30;6.13;;;;;;;8.73;78.65;101837.63;5073040;28;20032;-65
2023/05/16 02:41:17;;;;;;;15.82;5.75;;;;;;;8.51;79.62;101835.81;5073037;28;20033;-65
2023/05/16 02:43:45;;;;;;;18.25;6.10;;;;;;;8.46;79.50;101836.91;5071556;28;20483;-65
2023/05/16 02:46:20;;;;;;;14.02;3.85;;;;;;;8.73;79.23;101842.94;5072915;28;20024;-65
2023/05/16 02:48:49;;;;;;;21.30;4.55;;;;;;;8.65;79.25;101845.91;5072741;28;20492;-66
2023/05/16 02:51:15;;;;;;;12.52;3.63;;;;;;;8.67;79.03;101853.78;5071631;28;20017;-66
2023/05/16 02:53:40;;;;;;;16.80;4.88;;;;;;;8.51;79.70;101843.78;5072535;28;20028;-65
2023/05/16 02:56:05;;;;;;;17.83;5.72;;;;;;;8.55;79.52;101855.13;5071513;28;20020;-65
2023/05/16 02:58:33;;;;;;;17.02;4.50;;;;;;;8.64;79.58;101858.28;5072390;28;20025;-66
2023/05/16 03:00:58;;;;;;;13.57;4.32;;;;;;;8.72;79.08;101854.47;5070064;28;20081;-66
2023/05/16 03:03:24;;;;;;;20.90;4.40;;;;;;;8.72;79.00;101871.25;5072505;28;20024;-66
2023/05/16 03:05:50;;;;;;;18.05;6.03;;;;;;;8.63;78.88;101863.66;5072128;28;20031;-66
2023/05/16 03:08:16;;;;;;;17.88;4.72;;;;;;;8.74;78.45;101869.41;5072077;28;20104;-66
2023/05/16 03:10:41;;;;;;;18.02;5.10;;;;;;;8.51;79.20;101872.94;5072389;28;20091;-65
2023/05/16 03:13:06;;;;;;;18.27;4.90;;;;;;;8.67;79.26;101878.50;5071983;28;20090;-65
2023/05/16 03:15:32;;;;;;;16.65;4.65;;;;;;;8.64;78.97;101879.47;5070968;28;20066;-66
2023/05/16 03:17:57;;;;;;;16.15;4.55;;;;;;;8.56;79.35;101878.03;5072244;28;20028;-66
2023/05/16 03:20:23;;;;;;;14.18;4.13;;;;;;;8.72;78.83;101881.00;5070804;28;20024;-65
2023/05/16 03:22:50;;;;;;;15.93;3.88;;;;;;;8.68;78.64;101877.59;5071702;28;20025;-66
2023/05/16 03:25:16;;;;;;;16.65;4.18;;;;;;;8.66;78.94;101879.44;5071768;28;20032;-65
2023/05/16 03:27:41;;;;;;;18.85;5.70;;;;;;;8.56;78.91;101867.44;5071242;28;20020;-66
2023/05/16 03:30:07;;;;;;;14.93;4.93;;;;;;;8.56;79.03;101876.28;5070843;28;20460;-65
2023/05/16 03:32:33;;;;;;;15.43;4.53;;;;;;;8.56;79.11;101868.34;5104284;28;20029;-65
2023/05/16 03:34:58;;;;;;;20.50;5.43;;;;;;;8.47;79.09;101874.00;5071570;28;20045;-66
2023/05/16 03:37:24;;;;;;;16.20;4.63;;;;;;;8.53;78.89;101878.16;5070971;28;20391;-66
2023/05/16 03:39:50;;;;;;;16.42;4.57;;;;;;;8.48;79.29;101875.72;5071900;28;20012;-65
2023/05/16 03:42:17;;;;;;;14.15;4.35;;;;;;;8.54;79.04;101878.13;5071863;28;20025;-66
2023/05/16 03:44:45;;;;;;;12.32;4.65;;;;;;;8.51;79.07;101888.84;5071981;28;20024;-66
2023/05/16 03:47:10;;;;;;;17.08;5.43;;;;;;;8.32;79.28;101888.63;5071550;28;20082;-66
2023/05/16 03:49:36;;;;;;;18.02;4.60;;;;;;;8.43;79.36;101890.06;5071794;28;20024;-66
2023/05/16 03:52:03;;;;;;;13.48;4.93;;;;;;;8.23;79.87;101901.34;5071179;28;20401;-66
2023/05/16 03:54:28;;;;;;;13.52;4.38;;;;;;;8.50;79.16;101894.19;5071975;28;20028;-66
2023/05/16 03:56:54;;;;;;;19.30;4.50;;;;;;;8.34;79.61;101891.22;5071912;28;20028;-66
2023/05/16 03:59:22;;;;;;;15.57;5.55;;;;;;;8.37;79.23;101907.00;5070636;28;20111;-66
2023/05/16 04:01:49;;;;;;;15.48;5.97;;;;;;;8.25;79.83;101900.38;5071825;28;20032;-66
2023/05/16 04:04:14;;;;;;;12.43;4.53;;;;;;;8.42;79.44;101902.44;5071515;28;20082;-66
2023/05/16 04:06:42;;;;;;;13.98;6.03;;;;;;;8.34;79.57;101905.34;5070225;28;20047;-66
2023/05/16 04:09:08;;;;;;;18.17;4.65;;;;;;;8.43;79.37;101904.16;5104364;28;20017;-65
2023/05/16 04:11:34;;;;;;;11.57;4.82;;;;;;;8.33;79.67;101908.06;5071795;28;20495;-66
2023/05/16 04:14:01;;;;;;;16.60;5.00;;;;;;;8.40;79.77;101899.84;5087203;28;20028;-65
2023/05/16 04:16:27;;;;;;;14.88;5.07;;;;;;;8.39;79.57;101911.38;5071597;28;20024;-66
2023/05/16 04:18:55;;;;;;;12.98;4.38;;;;;;;8.40;79.60;101913.09;5071489;28;20102;-65
2023/05/16 04:21:22;;;;;;;19.33;4.57;;;;;;;8.44;79.38;101911.19;5071282;28;20028;-66
2023/05/16 04:23:48;;;;;;;14.55;4.78;;;;;;;8.25;80.17;101923.38;5071620;28;20103;-66
2023/05/16 04:26:13;;;;;;;11.10;4.25;;;;;;;8.36;79.83;101924.72;5071576;28;20171;-65
2023/05/16 04:28:41;;;;;;;13.40;5.45;;;;;;;8.34;79.95;101929.19;5070443;28;20025;-66
2023/05/16 04:31:07;;;;;;;14.30;3.97;;;;;;;8.46;79.52;101924.41;5070362;28;20467;-66
2023/05/16 04:33:33;;;;;;;16.80;6.00;;;;;;;8.35;79.88;101907.09;5103884;28;20031;-66
2023/05/16 04:35:59;;;;;;;12.98;3.97;;;;;;;8.45;79.71;101936.81;5071173;28;20041;-66
2023/05/16 04:38:27;;;;;;;18.20;4.28;;;;;;;8.33;80.50;101938.06;5071139;28;20036;-65
2023/05/16 04:40:56;;;;;;;18.55;4.68;;;;;;;8.41;79.64;101938.69;5071571;28;20021;-65
2023/05/16 04:43:21;;;;;;;13.52;4.00;;;;;;;8.30;80.85;101939.97;5071413;28;20104;-66
2023/05/16 04:45:47;;;;;;;12.30;4.20;;;;;;;8.24;81.08;101926.94;5070983;28;20135;-65
2023/05/16 04:48:14;;;;;;;15.38;5.18;;;;;;;8.27;81.07;101942.75;5069755;28;20028;-66
2023/05/16 04:50:39;;;;;;;18.13;5.50;;;;;;;8.30;81.16;101945.28;5071131;28;20028;-65
2023/05/16 04:53:05;;;;;;;21.08;5.30;;;;;;;8.33;81.32;101950.47;5070326;28;20027;-66
2023/05/16 04:55:30;;;;;;;20.20;5.45;;;;;;;8.30;81.49;101951.44;5069929;28;20545;-66
2023/05/16 04:57:56;;;;;;;21.48;5.47;;;;;;;8.30;81.05;101950.59;5069891;28;20032;-66
2023/05/16 05:00:21;;;;;;;11.15;4.70;;;;;;;8.32;81.43;101933.69;5070541;28;20027;-66
2023/05/16 05:02:47;;;;;;;9.68;3.78;;;;;;;8.59;80.86;101957.50;5070656;28;20373;-65
2023/05/16 05:05:12;;;;;;;13.32;4.05;;;;;;;8.55;81.23;101962.03;5070114;28;20044;-66
2023/05/16 05:07:41;;;;;;;18.75;6.40;;;;;;;8.52;81.28;101964.81;5070604;28;20524;-66
2023/05/16 05:10:07;;;;;;;14.50;4.05;;;;;;;8.54;81.18;101947.06;5069640;28;20028;-66
2023/05/16 05:12:33;;;;;;;17.20;6.07;;;;;;;8.71;81.23;101954.41;5069647;28;20081;-66
2023/05/16 05:14:59;;;;;;;15.70;4.43;;;;;;;8.78;81.00;101955.03;5071124;28;20017;-66
2023/05/16 05:17:24;;;;;;;14.23;5.13;;;;;;;8.83;80.65;101953.94;5071094;28;20050;-66
2023/05/16 05:19:49;;;;;;;21.33;5.25;;;;;;;8.87;80.32;101952.88;5071051;28;20471;-65
2023/05/16 05:22:15;;;;;;;15.80;4.57;;;;;;;8.96;80.24;101956.09;5069194;28;20460;-65
2023/05/16 05:24:40;;;;;;;15.10;4.13;;;;;;;8.96;80.21;101958.75;5072238;28;20033;-65
2023/05/16 05:27:06;;;;;;;24.02;6.18;;;;;;;8.99;80.25;101961.28;5075696;28;20033;-65
2023/05/16 05:29:31;;;;;;;20.95;5.63;;;;;;;9.05;79.68;101961.06;5085615;28;20124;-66
2023/05/16 05:31:56;;;;;;;15.27;5.38;;;;;;;9.04;79.44;101964.66;5095226;28;20375;-66
2023/05/16 05:34:22;;;;;;;16.38;4.78;;;;;;;9.06;79.12;101968.13;5093358;28;20075;-65
2023/05/16 05:36:50;;;;;;;14.90;4.60;;;;;;;9.19;78.90;101971.16;5094245;28;20107;-66
2023/05/16 05:39:15;;;;;;;17.67;4.95;;;;;;;9.35;78.88;101976.69;5093315;28;20027;-65
2023/05/16 05:41:41;;;;;;;16.55;4.70;;;;;;;9.43;78.34;101969.31;5087789;28;20025;-66
2023/05/16 05:44:09;;;;;;;14.50;5.18;;;;;;;9.45;77.88;101983.38;5073380;28;20044;-66
2023/05/16 05:46:34;;;;;;;17.15;5.25;;;;;;;9.40;77.00;101975.59;5071446;28;20029;-66
2023/05/16 05:49:00;;;;;;;15.90;4.53;;;;;;;9.56;77.65;101983.84;5073369;28;20029;-66
2023/05/16 05:51:25;;;;;;;21.27;6.63;;;;;;;9.62;77.48;101972.06;5072330;28;20024;-66
2023/05/16 05:53:51;;;;;;;17.33;5.03;;;;;;;9.70;76.87;101976.13;5073077;28;20051;-65
2023/05/16 05:56:17;;;;;;;10.18;4.32;;;;;;;9.86;75.82;101992.31;5073268;28;20024;-66
2023/05/16 05:58:43;;;;;;;17.75;5.40;;;;;;;9.85;75.52;101987.06;5092278;28;20020;-67
2023/05/16 06:01:12;;;;;;;15.63;5.05;;;;;;;9.96;75.67;101982.16;5089578;28;20102;-66
2023/05/16 06:03:40;;;;;;;18.73;5.43;;;;;;;10.09;74.87;101999.34;5073901;28;20032;-66
2023/05/16 06:06:08;;;;;;;13.55;4.60;;;;;;;10.22;74.90;101999.66;5072639;28;20031;-66
2023/05/16 06:08:36;;;;;;;20.90;6.00;;;;;;;10.20;74.54;102002.38;5073522;28;20070;-66
2023/05/16 06:11:01;;;;;;;14.75;6.07;;;;;;;10.27;73.56;101994.19;5073837;28;20094;-66
2023/05/16 06:13:29;;;;;;;20.15;5.90;;;;;;;10.43;73.66;101998.75;5073525;28;20466;-66
2023/05/16 06:15:55;;;;;;;21.83;6.35;;;;;;;10.44;72.32;101987.19;5073948;28;20020;-66
2023/05/16 06:18:20;;;;;;;19.00;5.65;;;;;;;10.50;72.56;101996.72;5073624;28;20508;-66
2023/05/16 06:20:46;;;;;;;19.08;5.22;;;;;;;10.56;73.06;102017.72;5072540;28;20028;-66
2023/05/16 06:23:12;;;;;;;15.48;5.25;;;;;;;10.71;72.06;102015.28;5072855;28;20058;-65
2023/05/16 06:25:37;;;;;;;19.85;4.85;;;;;;;10.88;71.56;102015.38;5072855;28;20454;-66
2023/05/16 06:28:03;;;;;;;17.40;5.70;;;;;;;10.90;70.96;102009.06;5084305;28;20020;-66
2023/05/16 06:30:28;;;;;;;13.88;4.72;;;;;;;10.94;69.82;102023.09;5092611;28;20386;-67
2023/05/16 06:32:56;;;;;;;16.02;5.38;;;;;;;11.02;69.96;102012.94;5074514;28;20020;-66
2023/05/16 06:35:25;;;;;;;16.30;5.30;;;;;;;11.14;69.88;102016.84;5077138;28;20053;-65
2023/05/16 06:37:50;;;;;;;16.60;5.60;;;;;;;11.15;69.88;102013.28;5078266;28;20093;-66
2023/05/16 06:40:15;;;;;;;14.48;4.43;;;;;;;11.32;69.69;102012.44;5073291;28;20434;-66
2023/05/16 06:42:41;;;;;;;15.32;5.10;;;;;;;11.43;69.62;102015.47;5073010;28;20052;-66
2023/05/16 06:45:07;;;;;;;14.68;5.40;;;;;;;11.42;69.18;102013.75;5071356;28;20369;-66
2023/05/16 06:47:32;;;;;;;16.45;4.78;;;;;;;11.48;68.45;102018.78;5071004;28;20070;-65
2023/05/16 06:49:58;;;;;;;18.00;5.55;;;;;;;11.49;68.34;102028.50;5073212;28;20024;-65
2023/05/16 06:52:24;;;;;;;11.88;4.32;;;;;;;11.53;68.57;102024.75;5072514;28;20070;-66
2023/05/16 06:54:49;;;;;;;11.88;4.53;;;;;;;11.62;68.10;102017.25;5071520;28;20173;-66
2023/05/16 06:57:15;;;;;;;20.20;4.72;;;;;;;11.60;67.01;102020.00;5072576;28;20032;-66
2023/05/16 06:59:41;;;;;;;11.20;4.70;;;;;;;11.50;67.15;102019.59;5071227;28;20438;-66
2023/05/16 07:02:11;;;;;;;13.52;4.20;;;;;;;11.46;67.23;102025.97;5071161;28;20021;-66
2023/05/16 07:04:37;;;;;;;11.88;4.53;;;;;;;11.45;67.70;102018.06;5072353;28;20028;-66
2023/05/16 07:07:03;;;;;;;15.38;4.97;;;;;;;11.53;68.60;102016.78;5070703;28;20475;-66
2023/05/16 07:09:29;;;;;;;13.13;4.35;;;;;;;11.43;65.89;102014.63;5071287;28;20031;-66
2023/05/16 07:11:54;;;;;;;15.55;4.28;;;;;;;11.37;64.89;102019.28;5071959;28;20028;-65
2023/05/16 07:14:20;;;;;;;10.52;3.70;;;;;;;11.54;64.30;102017.63;5072423;28;20529;-65
2023/05/16 07:16:45;;;;;;;13.43;4.63;;;;;;;11.71;62.89;102036.34;5071503;28;20166;-66
2023/05/16 07:19:11;;;;;;;13.85;4.50;;;;;;;11.78;64.02;102018.22;5071019;28;20127;-66
2023/05/16 07:21:36;;;;;;;9.48;4.13;;;;;;;11.96;62.36;102028.00;5071856;28;20042;-66
2023/05/16 07:24:04;;;;;;;12.23;4.22;;;;;;;12.12;62.06;102029.91;5071216;28;20032;-65
2023/05/16 07:26:29;;;;;;;13.43;3.60;;;;;;;12.21;62.20;102042.78;5070778;28;20118;-66
2023/05/16 07:28:55;;;;;;;13.07;4.25;;;;;;;12.13;61.01;102039.66;5071137;28;20481;-65
2023/05/16 07:31:20;;;;;;;13.68;3.88;;;;;;;11.89;59.66;102026.59;5070974;28;20036;-65
2023/05/16 07:33:46;;;;;;;10.85;3.90;;;;;;;11.76;60.80;102025.44;5072246;28;20024;-66
2023/05/16 07:36:12;;;;;;;17.45;3.90;;;;;;;11.84;61.13;102041.91;5071950;28;20076;-65
2023/05/16 07:38:38;;;;;;;13.00;3.85;;;;;;;11.94;61.70;102043.25;5070570;28;20029;-66
2023/05/16 07:41:06;;;;;;;10.13;3.80;;;;;;;12.09;58.78;102040.72;5087542;28;20024;-66
2023/05/16 07:43:34;;;;;;;8.75;3.95;;;;;;;12.25;59.39;102042.53;5070602;28;20020;-66
2023/05/16 07:46:00;;;;;;;9.57;4.03;;;;;;;12.58;59.57;102046.22;5070521;28;20062;-66
2023/05/16 07:48:26;;;;;;;11.00;4.18;;;;;;;12.78;59.01;102039.84;5069131;28;20024;-65
2023/05/16 07:50:54;;;;;;;13.65;4.13;;;;;;;13.08;57.72;102053.34;5070486;28;20479;-66
2023/05/16 07:53:20;;;;;;;6.47;3.22;;;;;;;13.20;56.01;102052.66;5070137;28;20051;-65
2023/05/16 07:55:46;;;;;;;8.60;3.35;;;;;;;13.17;56.41;102044.81;5071852;28;20017;-66
2023/05/16 07:58:12;;;;;;;13.07;3.63;;;;;;;13.29;56.53;102033.50;5064445;28;20017;-66
2023/05/16 08:00:38;;;;;;;13.25;3.55;;;;;;;13.21;55.58;102057.09;5070906;28;20027;-66
2023/05/16 08:03:03;;;;;;;9.18;3.47;;;;;;;13.22;56.39;102048.13;5070692;28;20441;-66
2023/05/16 08:05:28;;;;;;;10.35;3.42;;;;;;;13.38;56.16;102038.34;5071093;28;20021;-65
2023/05/16 08:07:54;;;;;;;14.20;3.58;;;;;;;13.16;56.80;102054.66;5070260;28;20467;-66
2023/05/16 08:10:19;;;;;;;6.60;3.40;;;;;;;13.29;57.24;102056.69;5069470;28;20032;-65
2023/05/16 08:12:45;;;;;;;7.07;3.40;;;;;;;13.19;56.79;102050.94;5070039;28;20036;-66
2023/05/16 08:15:13;;;;;;;11.27;4.20;;;;;;;13.44;55.95;102044.28;5071243;28;20470;-66
2023/05/16 08:17:41;;;;;;;9.85;3.80;;;;;;;13.67;56.69;102053.69;5071019;28;20033;-66
2023/05/16 08:20:07;;;;;;;8.02;3.47;;;;;;;13.88;56.04;102056.94;5069736;28;20387;-66
2023/05/16 08:22:32;;;;;;;9.50;3.33;;;;;;;13.58;54.05;102053.25;5070486;28;20031;-66
2023/05/16 08:25:01;;;;;;;7.10;2.97;;;;;;;13.49;54.74;102058.25;5049618;28;20416;-66
2023/05/16 08:27:30;;;;;;;7.63;2.87;;;;;;;13.42;54.87;102054.22;5060789;28;20040;-66
2023/05/16 08:29:55;;;;;;;9.47;2.93;;;;;;;13.14;54.11;102058.34;5069218;28;20025;-66
2023/05/16 08:32:21;;;;;;;8.32;3.38;;;;;;;13.02;54.91;102062.53;5070983;28;20027;-66
2023/05/16 08:34:46;;;;;;;10.85;3.70;;;;;;;13.10;55.30;102059.47;5069189;28;20056;-65
2023/05/16 08:37:12;;;;;;;9.40;3.58;;;;;;;13.42;55.46;102040.84;5068539;28;20403;-66
2023/05/16 08:39:40;;;;;;;9.57;3.80;;;;;;;13.88;53.63;102036.41;5068713;28;20036;-66
2023/05/16 08:42:08;;;;;;;7.72;3.10;;;;;;;14.17;52.11;102049.88;5070403;28;20085;-66
2023/05/16 08:44:34;;;;;;;7.40;3.05;;;;;;;14.32;51.23;102041.84;5070399;28;20024;-65
2023/05/16 08:47:10;;;;;;;12.20;3.40;;;;;;;14.50;52.27;102053.25;5069444;28;20040;-66
2023/05/16 08:49:38;;;;;;;10.32;2.85;;;;;;;14.53;52.58;102044.22;5070535;28;20036;-65
2023/05/16 08:52:07;;;;;;;10.75;3.45;;;;;;;14.26;52.42;102041.31;5068999;28;20025;-66
2023/05/16 08:54:33;;;;;;;7.72;2.95;;;;;;;14.28;53.19;102036.75;5070635;28;20037;-66
2023/05/16 08:57:00;;;;;;;9.80;3.80;;;;;;;14.52;53.96;102037.97;5071019;28;20383;-66
2023/05/16 08:59:26;;;;;;;8.50;3.78;;;;;;;14.76;53.74;102037.41;5070382;28;20025;-66
2023/05/16 09:01:54;;;;;;;12.38;3.60;;;;;;;14.83;53.15;102032.56;5074303;28;20035;-66
2023/05/16 09:04:19;;;;;;;7.35;3.53;;;;;;;15.16;52.45;102035.81;5074472;28;20472;-66
2023/05/16 09:06:45;;;;;;;9.85;3.88;;;;;;;15.44;51.04;102040.28;5073960;28;20036;-66
2023/05/16 09:09:11;;;;;;;11.13;3.55;;;;;;;15.41;50.84;102039.59;5073088;28;20025;-66
2023/05/16 09:11:38;;;;;;;10.25;3.30;;;;;;;15.77;51.46;102040.88;5073786;28;20032;-66
2023/05/16 09:14:04;;;;;;;10.00;3.03;;;;;;;15.61;51.23;102049.88;5072759;28;20028;-66
2023/05/16 09:16:30;;;;;;;7.40;2.90;;;;;;;15.07;49.31;102041.75;5072997;28;20028;-66
2023/05/16 09:18:57;;;;;;;10.30;3.08;;;;;;;15.08;50.57;102043.44;5074741;28;20035;-65
2023/05/16 09:21:31;;;;;;;12.32;3.92;;;;;;;15.22;51.42;102051.50;5073977;28;20024;-66
2023/05/16 09:24:07;;;;;;;9.52;3.75;;;;;;;15.59;50.19;102038.41;5074623;28;20059;-66
2023/05/16 09:26:37;;;;;;;7.95;3.30;;;;;;;15.80;50.91;102046.03;5073127;28;20507;-65
2023/05/16 09:29:12;;;;;;;7.47;2.97;;;;;;;16.18;48.06;102030.06;5073335;28;20024;-66
2023/05/16 09:31:38;;;;;;;9.73;3.20;;;;;;;15.99;47.54;102043.84;5074719;28;20021;-66
2023/05/16 09:34:07;;;;;;;7.05;2.88;;;;;;;15.67;47.77;102052.19;5074565;28;20085;-65
2023/05/16 09:36:33;;;;;;;7.20;3.30;;;;;;;15.80;46.34;102044.22;5073873;28;20087;-66
2023/05/16 09:39:00;;;;;;;6.53;2.70;;;;;;;16.10;46.91;102041.31;5073515;28;20056;-66
2023/05/16 09:41:25;;;;;;;5.43;2.88;;;;;;;16.30;46.22;102029.22;5074461;28;20025;-66
2023/05/16 09:43:53;;;;;;;5.88;2.70;;;;;;;16.63;45.50;102041.28;5074489;28;20024;-66
2023/05/16 09:46:25;;;;;;;8.82;2.80;;;;;;;16.67;46.62;102045.47;5072876;28;20031;-66
2023/05/16 09:48:50;;;;;;;8.63;2.53;;;;;;;16.27;45.88;102036.63;5074293;28;20028;-66
2023/05/16 09:51:21;;;;;;;9.98;2.70;;;;;;;15.64;47.00;102047.00;5072616;28;20107;-66
2023/05/16 09:53:48;;;;;;;5.40;2.50;;;;;;;15.28;48.83;102039.50;5074256;28;20025;-66
2023/05/16 09:56:14;;;;;;;7.88;2.42;;;;;;;15.05;48.97;102049.00;5072906;28;20471;-66
2023/05/16 09:58:42;;;;;;;8.15;3.05;;;;;;;14.72;49.97;102054.66;5073138;28;20476;-66
2023/05/16 10:01:09;;;;;;;7.93;3.10;;;;;;;14.49;50.24;102051.50;5072719;28;20475;-66
2023/05/16 10:03:42;;;;;;;8.05;3.35;;;;;;;14.65;50.35;102051.50;5074015;28;20055;-66
2023/05/16 10:06:10;;;;;;;9.30;3.85;;;;;;;15.19;50.64;102035.59;5072554;28;20119;-66
2023/05/16 10:08:36;;;;;;;7.43;3.47;;;;;;;15.74;48.56;102043.78;5073583;28;20029;-66
2023/05/16 10:11:05;;;;;;;3.88;2.47;;;;;;;15.66;46.26;102044.22;5072288;28;20028;-66
2023/05/16 10:13:31;;;;;;;;;;;;;;;16.07;46.69;102043.34;5072984;28;20471;-65
2023/05/16 10:16:00;;;;;;;9.52;3.05;;;;;;;16.03;45.79;102037.34;5106389;28;19947;-65
2023/05/16 10:18:30;;;;;;;4.18;3.05;;;;;;;16.18;44.05;102040.81;5072470;28;20040;-65
2023/05/16 10:21:01;;;;;;;9.07;2.95;;;;;;;16.63;45.12;102040.44;5072311;28;20115;-66
2023/05/16 10:23:27;;;;;;;8.48;3.00;;;;;;;16.75;43.70;102042.25;5073165;28;20119;-66
2023/05/16 10:25:54;;;;;;;7.57;3.03;;;;;;;16.97;44.80;102036.25;5073624;28;20051;-66
2023/05/16 10:28:20;;;;;;;7.13;2.80;;;;;;;17.29;44.04;102031.25;5072151;28;20441;-66
2023/05/16 10:30:46;;;;;;;9.10;2.75;;;;;;;17.27;43.41;102046.66;5073524;28;20108;-65
2023/05/16 10:33:16;;;;;;;7.85;2.72;;;;;;;16.82;42.58;102042.72;5073489;28;20016;-65
2023/05/16 10:35:42;;;;;;;7.00;2.80;;;;;;;16.37;43.97;102051.13;5073433;28;20488;-65
2023/05/16 10:38:12;;;;;;;6.43;2.38;;;;;;;15.94;43.74;102035.22;5073021;28;20032;-66
2023/05/16 10:40:39;;;;;;;6.25;2.92;;;;;;;15.73;44.29;102045.56;5072270;28;20552;-66
2023/05/16 10:43:07;;;;;;;6.93;2.95;;;;;;;16.17;44.05;102031.00;5073091;28;20070;-65
2023/05/16 10:45:32;;;;;;;6.72;3.30;;;;;;;16.70;43.68;102028.28;5073383;28;20025;-66
2023/05/16 10:48:00;;;;;;;6.63;2.78;;;;;;;16.95;41.49;102040.91;5071754;28;20072;-66
2023/05/16 10:50:34;;;;;;;5.18;2.67;;;;;;;17.10;41.92;102036.25;5072948;28;20073;-66
2023/05/16 10:53:18;;;;;;;7.32;2.63;;;;;;;17.12;41.16;102035.19;5072452;28;20545;-66
2023/05/16 10:56:04;;;;;;;8.23;2.50;;;;;;;17.35;42.13;102033.50;5071913;28;20502;-65
2023/05/16 10:58:30;;;;;;;8.88;2.58;;;;;;;17.46;41.32;102038.09;5071528;28;20040;-65
2023/05/16 11:01:19;;;;;;;8.73;2.40;;;;;;;17.56;42.28;102039.16;5071739;28;20078;-65
2023/05/16 11:04:03;;;;;;;5.57;2.50;;;;;;;17.59;43.08;102029.97;5071298;28;20027;-66
2023/05/16 11:06:33;;;;;;;5.90;1.98;;;;;;;17.49;40.67;102019.88;5072319;28;20029;-65
2023/05/16 11:09:09;;;;;;;6.30;2.15;;;;;;;17.47;41.94;102043.38;5071552;28;20501;-65
2023/05/16 11:12:05;;;;;;;11.43;2.90;;;;;;;17.07;43.19;102041.84;5072744;28;20043;-65
2023/05/16 11:14:33;;;;;;;8.57;2.63;;;;;;;16.98;43.01;102040.69;5072576;28;20028;-65
2023/05/16 11:17:07;;;;;;;8.35;2.85;;;;;;;17.41;42.34;102041.13;5071231;28;20033;-66
2023/05/16 11:19:41;;;;;;;4.95;2.08;;;;;;;17.87;43.64;102031.50;5071195;28;20381;-65
2023/05/16 11:22:18;;;;;;;9.95;2.63;;;;;;;18.27;42.23;102039.28;5071320;28;20102;-65
2023/05/16 11:25:07;;;;;;;7.38;2.60;;;;;;;18.41;42.36;102032.81;5071126;28;20391;-66
2023/05/16 11:27:48;;;;;;;7.10;2.33;;;;;;;18.44;41.18;102038.81;5072703;28;20028;-65